sensor_id;sensor_type;location;lat;lon;timestamp;temperature;humidity
5466;DHT22;2755;50.728;7.108;2023-07-20T00:01:57;18.10;1.00
5466;DHT22;2755;50.728;7.108;2023-07-20T00:06:49;18.10;1.00
5466;DHT22;2755;50.728;7.108;2023-07-20T00:11:47;18.20;1.00
5466;DHT22;2755;50.728;7.108;2023-07-20T00:14:13;18.10;1.00
5466;DHT22;2755;50.728;7.108;2023-07-20T00:16:39;17.60;1.00
5466;DHT22;2755;50.728;7.108;2023-07-20T00:19:04;18.60;1.00
5466;DHT22;2755;50.728;7.108;2023-07-20T00:21:32;18.00;1.00
5466;DHT22;2755;50.728;7.108;2023-07-20T00:23:57;17.90;1.00
5466;DHT22;2755;50.728;7.108;2023-07-20T00:26:24;17.80;1.00
5466;DHT22;2755;50.728;7.108;2023-07-20T00:28:50;17.60;1.00
5466;DHT22;2755;50.728;7.108;2023-07-20T00:31:17;18.00;3.50
5466;DHT22;2755;50.728;7.108;2023-07-20T00:33:42;17.80;5.50
5466;DHT22;2755;50.728;7.108;2023-07-20T00:36:08;17.70;7.80
5466;DHT22;2755;50.728;7.108;2023-07-20T00:38:33;17.70;9.20
5466;DHT22;2755;50.728;7.108;2023-07-20T00:40:59;17.40;11.20
5466;DHT22;2755;50.728;7.108;2023-07-20T00:43:24;17.20;14.30
5466;DHT22;2755;50.728;7.108;2023-07-20T00:48:16;17.20;15.60
5466;DHT22;2755;50.728;7.108;2023-07-20T00:53:08;16.60;19.00
5466;DHT22;2755;50.728;7.108;2023-07-20T00:55:34;17.30;20.90
5466;DHT22;2755;50.728;7.108;2023-07-20T00:58:00;16.60;21.20
5466;DHT22;2755;50.728;7.108;2023-07-20T01:00:26;17.00;18.20
5466;DHT22;2755;50.728;7.108;2023-07-20T01:02:51;16.70;21.60
5466;DHT22;2755;50.728;7.108;2023-07-20T01:05:17;17.60;23.20
5466;DHT22;2755;50.728;7.108;2023-07-20T01:07:58;17.00;23.40
5466;DHT22;2755;50.728;7.108;2023-07-20T01:10:41;16.90;21.10
5466;DHT22;2755;50.728;7.108;2023-07-20T01:13:09;16.90;23.60
5466;DHT22;2755;50.728;7.108;2023-07-20T01:15:36;16.50;24.40
5466;DHT22;2755;50.728;7.108;2023-07-20T01:18:02;17.80;27.70
5466;DHT22;2755;50.728;7.108;2023-07-20T01:20:31;16.60;26.10
5466;DHT22;2755;50.728;7.108;2023-07-20T01:26:08;16.90;26.70
5466;DHT22;2755;50.728;7.108;2023-07-20T01:28:41;16.90;28.90
5466;DHT22;2755;50.728;7.108;2023-07-20T01:31:40;16.80;25.70
5466;DHT22;2755;50.728;7.108;2023-07-20T01:34:09;16.60;29.50
5466;DHT22;2755;50.728;7.108;2023-07-20T01:36:36;16.80;27.50
5466;DHT22;2755;50.728;7.108;2023-07-20T01:39:03;16.80;27.50
5466;DHT22;2755;50.728;7.108;2023-07-20T01:41:30;17.10;28.30
5466;DHT22;2755;50.728;7.108;2023-07-20T01:43:58;16.70;28.10
5466;DHT22;2755;50.728;7.108;2023-07-20T01:46:27;16.40;33.30
5466;DHT22;2755;50.728;7.108;2023-07-20T01:48:53;16.70;32.20
5466;DHT22;2755;50.728;7.108;2023-07-20T01:51:19;16.70;30.50
5466;DHT22;2755;50.728;7.108;2023-07-20T01:53:45;16.70;30.30
5466;DHT22;2755;50.728;7.108;2023-07-20T01:56:10;15.60;30.70
5466;DHT22;2755;50.728;7.108;2023-07-20T01:58:37;16.30;33.20
5466;DHT22;2755;50.728;7.108;2023-07-20T02:01:03;16.50;34.40
5466;DHT22;2755;50.728;7.108;2023-07-20T02:03:29;16.90;33.40
5466;DHT22;2755;50.728;7.108;2023-07-20T02:05:54;16.70;36.40
5466;DHT22;2755;50.728;7.108;2023-07-20T02:08:20;17.00;37.70
5466;DHT22;2755;50.728;7.108;2023-07-20T02:10:47;16.90;37.70
5466;DHT22;2755;50.728;7.108;2023-07-20T02:13:13;16.70;38.50
5466;DHT22;2755;50.728;7.108;2023-07-20T02:15:39;17.10;35.80
5466;DHT22;2755;50.728;7.108;2023-07-20T02:18:05;17.20;37.80
5466;DHT22;2755;50.728;7.108;2023-07-20T02:20:31;16.40;35.70
5466;DHT22;2755;50.728;7.108;2023-07-20T02:22:57;16.60;35.70
5466;DHT22;2755;50.728;7.108;2023-07-20T02:25:22;16.00;35.20
5466;DHT22;2755;50.728;7.108;2023-07-20T02:27:48;16.00;35.20
5466;DHT22;2755;50.728;7.108;2023-07-20T02:30:13;16.30;39.00
5466;DHT22;2755;50.728;7.108;2023-07-20T02:32:39;16.00;38.00
5466;DHT22;2755;50.728;7.108;2023-07-20T02:35:05;16.20;39.00
5466;DHT22;2755;50.728;7.108;2023-07-20T02:37:31;15.80;39.60
5466;DHT22;2755;50.728;7.108;2023-07-20T02:39:57;15.80;39.70
5466;DHT22;2755;50.728;7.108;2023-07-20T02:42:23;16.10;38.60
5466;DHT22;2755;50.728;7.108;2023-07-20T02:47:17;15.80;39.90
5466;DHT22;2755;50.728;7.108;2023-07-20T02:49:43;16.10;42.10
5466;DHT22;2755;50.728;7.108;2023-07-20T02:52:09;15.70;39.20
5466;DHT22;2755;50.728;7.108;2023-07-20T02:54:34;15.60;39.50
5466;DHT22;2755;50.728;7.108;2023-07-20T02:57:00;15.70;43.40
5466;DHT22;2755;50.728;7.108;2023-07-20T02:59:26;16.30;42.40
5466;DHT22;2755;50.728;7.108;2023-07-20T03:04:19;15.70;44.50
5466;DHT22;2755;50.728;7.108;2023-07-20T03:06:45;15.40;44.20
5466;DHT22;2755;50.728;7.108;2023-07-20T03:09:10;15.20;48.30
5466;DHT22;2755;50.728;7.108;2023-07-20T03:11:36;14.60;47.90
5466;DHT22;2755;50.728;7.108;2023-07-20T03:14:01;15.20;47.10
5466;DHT22;2755;50.728;7.108;2023-07-20T03:16:27;15.00;50.30
5466;DHT22;2755;50.728;7.108;2023-07-20T03:21:18;14.90;52.50
5466;DHT22;2755;50.728;7.108;2023-07-20T03:23:44;15.00;55.30
5466;DHT22;2755;50.728;7.108;2023-07-20T03:26:10;15.20;56.70
5466;DHT22;2755;50.728;7.108;2023-07-20T03:28:36;15.10;64.00
5466;DHT22;2755;50.728;7.108;2023-07-20T03:31:03;14.90;62.10
5466;DHT22;2755;50.728;7.108;2023-07-20T03:33:30;15.20;58.20
5466;DHT22;2755;50.728;7.108;2023-07-20T03:35:56;15.20;62.00
5466;DHT22;2755;50.728;7.108;2023-07-20T03:38:22;15.40;60.50
5466;DHT22;2755;50.728;7.108;2023-07-20T03:40:52;15.50;64.20
5466;DHT22;2755;50.728;7.108;2023-07-20T03:43:18;15.40;59.90
5466;DHT22;2755;50.728;7.108;2023-07-20T03:45:44;14.90;60.00
5466;DHT22;2755;50.728;7.108;2023-07-20T03:48:11;15.10;59.70
5466;DHT22;2755;50.728;7.108;2023-07-20T03:50:36;15.20;61.90
5466;DHT22;2755;50.728;7.108;2023-07-20T03:53:02;15.60;58.20
5466;DHT22;2755;50.728;7.108;2023-07-20T03:55:28;15.50;57.20
5466;DHT22;2755;50.728;7.108;2023-07-20T03:57:53;15.90;57.70
5466;DHT22;2755;50.728;7.108;2023-07-20T04:00:19;15.40;58.50
5466;DHT22;2755;50.728;7.108;2023-07-20T04:05:11;15.30;57.60
5466;DHT22;2755;50.728;7.108;2023-07-20T04:07:36;15.80;57.80
5466;DHT22;2755;50.728;7.108;2023-07-20T04:10:02;14.90;55.90
5466;DHT22;2755;50.728;7.108;2023-07-20T04:12:28;15.50;58.20
5466;DHT22;2755;50.728;7.108;2023-07-20T04:14:53;15.60;59.40
5466;DHT22;2755;50.728;7.108;2023-07-20T04:24:37;16.10;51.40
5466;DHT22;2755;50.728;7.108;2023-07-20T04:27:02;15.80;50.00
5466;DHT22;2755;50.728;7.108;2023-07-20T04:31:54;15.20;49.30
5466;DHT22;2755;50.728;7.108;2023-07-20T04:34:20;15.80;45.10
5466;DHT22;2755;50.728;7.108;2023-07-20T04:36:45;16.10;45.10
5466;DHT22;2755;50.728;7.108;2023-07-20T04:39:12;16.00;44.20
5466;DHT22;2755;50.728;7.108;2023-07-20T04:44:03;16.20;43.00
5466;DHT22;2755;50.728;7.108;2023-07-20T04:51:21;16.40;41.20
5466;DHT22;2755;50.728;7.108;2023-07-20T04:53:47;16.20;40.70
5466;DHT22;2755;50.728;7.108;2023-07-20T04:56:13;16.30;41.70
5466;DHT22;2755;50.728;7.108;2023-07-20T05:05:57;16.40;36.10
5466;DHT22;2755;50.728;7.108;2023-07-20T05:08:23;16.50;35.20
5466;DHT22;2755;50.728;7.108;2023-07-20T05:10:48;16.30;32.20
5466;DHT22;2755;50.728;7.108;2023-07-20T05:13:14;16.70;36.00
5466;DHT22;2755;50.728;7.108;2023-07-20T05:15:40;16.60;32.70
5466;DHT22;2755;50.728;7.108;2023-07-20T05:18:05;16.50;35.00
5466;DHT22;2755;50.728;7.108;2023-07-20T05:20:31;16.50;35.30
5466;DHT22;2755;50.728;7.108;2023-07-20T05:22:58;16.60;32.40
5466;DHT22;2755;50.728;7.108;2023-07-20T05:25:24;16.50;34.70
5466;DHT22;2755;50.728;7.108;2023-07-20T05:27:49;17.00;31.80
5466;DHT22;2755;50.728;7.108;2023-07-20T05:30:16;16.70;31.40
5466;DHT22;2755;50.728;7.108;2023-07-20T05:32:41;17.00;31.30
5466;DHT22;2755;50.728;7.108;2023-07-20T05:35:07;17.10;29.00
5466;DHT22;2755;50.728;7.108;2023-07-20T05:37:34;16.80;32.50
5466;DHT22;2755;50.728;7.108;2023-07-20T05:42:25;16.30;27.00
5466;DHT22;2755;50.728;7.108;2023-07-20T05:44:51;17.60;27.60
5466;DHT22;2755;50.728;7.108;2023-07-20T05:47:18;17.70;24.40
5466;DHT22;2755;50.728;7.108;2023-07-20T05:52:10;17.40;23.90
5466;DHT22;2755;50.728;7.108;2023-07-20T05:57:01;17.70;22.70
5466;DHT22;2755;50.728;7.108;2023-07-20T05:59:27;17.30;23.10
5466;DHT22;2755;50.728;7.108;2023-07-20T06:01:55;17.50;22.50
5466;DHT22;2755;50.728;7.108;2023-07-20T06:09:13;18.00;23.20
5466;DHT22;2755;50.728;7.108;2023-07-20T06:11:39;17.80;18.30
5466;DHT22;2755;50.728;7.108;2023-07-20T06:14:05;18.00;20.90
5466;DHT22;2755;50.728;7.108;2023-07-20T06:18:58;18.20;17.30
5466;DHT22;2755;50.728;7.108;2023-07-20T06:21:24;18.40;17.50
5466;DHT22;2755;50.728;7.108;2023-07-20T06:23:49;18.70;17.10
5466;DHT22;2755;50.728;7.108;2023-07-20T06:26:15;18.60;13.70
5466;DHT22;2755;50.728;7.108;2023-07-20T06:28:41;18.80;11.30
5466;DHT22;2755;50.728;7.108;2023-07-20T06:33:32;19.00;6.60
5466;DHT22;2755;50.728;7.108;2023-07-20T06:36:00;19.10;5.20
5466;DHT22;2755;50.728;7.108;2023-07-20T06:40:52;18.50;4.30
5466;DHT22;2755;50.728;7.108;2023-07-20T06:43:17;19.10;3.00
5466;DHT22;2755;50.728;7.108;2023-07-20T06:45:43;19.70;4.70
5466;DHT22;2755;50.728;7.108;2023-07-20T06:48:09;20.00;4.80
5466;DHT22;2755;50.728;7.108;2023-07-20T06:50:35;18.60;1.00
5466;DHT22;2755;50.728;7.108;2023-07-20T06:53:00;19.60;1.00
5466;DHT22;2755;50.728;7.108;2023-07-20T06:55:28;19.80;1.00
5466;DHT22;2755;50.728;7.108;2023-07-20T06:57:54;19.60;1.00
5466;DHT22;2755;50.728;7.108;2023-07-20T07:00:19;20.00;1.00
5466;DHT22;2755;50.728;7.108;2023-07-20T07:05:11;20.30;1.00
5466;DHT22;2755;50.728;7.108;2023-07-20T07:07:38;20.40;1.00
5466;DHT22;2755;50.728;7.108;2023-07-20T07:10:04;21.00;1.00
5466;DHT22;2755;50.728;7.108;2023-07-20T07:12:30;21.10;1.00
5466;DHT22;2755;50.728;7.108;2023-07-20T07:14:56;21.20;1.00
5466;DHT22;2755;50.728;7.108;2023-07-20T07:17:22;21.80;1.00
5466;DHT22;2755;50.728;7.108;2023-07-20T07:19:47;20.90;1.00
5466;DHT22;2755;50.728;7.108;2023-07-20T07:22:13;20.50;1.00
5466;DHT22;2755;50.728;7.108;2023-07-20T07:24:39;20.70;1.00
5466;DHT22;2755;50.728;7.108;2023-07-20T07:27:08;20.90;1.00
5466;DHT22;2755;50.728;7.108;2023-07-20T07:29:33;21.10;1.00
5466;DHT22;2755;50.728;7.108;2023-07-20T07:31:59;21.50;1.00
5466;DHT22;2755;50.728;7.108;2023-07-20T07:34:25;21.60;1.00
5466;DHT22;2755;50.728;7.108;2023-07-20T07:36:51;21.50;1.00
5466;DHT22;2755;50.728;7.108;2023-07-20T07:39:17;22.20;1.00
5466;DHT22;2755;50.728;7.108;2023-07-20T07:41:42;22.30;1.00
5466;DHT22;2755;50.728;7.108;2023-07-20T07:44:08;22.90;1.00
5466;DHT22;2755;50.728;7.108;2023-07-20T07:46:33;22.60;1.00
5466;DHT22;2755;50.728;7.108;2023-07-20T07:51:25;23.70;1.00
5466;DHT22;2755;50.728;7.108;2023-07-20T07:56:18;25.20;1.00
5466;DHT22;2755;50.728;7.108;2023-07-20T07:58:48;24.20;1.00
5466;DHT22;2755;50.728;7.108;2023-07-20T08:01:14;23.50;1.00
5466;DHT22;2755;50.728;7.108;2023-07-20T08:03:40;23.10;1.00
5466;DHT22;2755;50.728;7.108;2023-07-20T08:06:05;24.10;1.00
5466;DHT22;2755;50.728;7.108;2023-07-20T08:08:32;23.60;1.00
5466;DHT22;2755;50.728;7.108;2023-07-20T08:10:58;23.80;1.00
5466;DHT22;2755;50.728;7.108;2023-07-20T08:13:23;23.50;1.00
5466;DHT22;2755;50.728;7.108;2023-07-20T08:15:50;23.50;1.00
5466;DHT22;2755;50.728;7.108;2023-07-20T08:18:19;23.60;1.00
5466;DHT22;2755;50.728;7.108;2023-07-20T08:23:11;24.00;1.00
5466;DHT22;2755;50.728;7.108;2023-07-20T08:28:05;25.00;1.00
5466;DHT22;2755;50.728;7.108;2023-07-20T08:30:40;25.40;1.00
5466;DHT22;2755;50.728;7.108;2023-07-20T08:33:06;25.80;1.00
5466;DHT22;2755;50.728;7.108;2023-07-20T08:37:58;25.40;1.00
5466;DHT22;2755;50.728;7.108;2023-07-20T08:40:23;25.40;1.00
5466;DHT22;2755;50.728;7.108;2023-07-20T08:42:49;27.10;1.00
5466;DHT22;2755;50.728;7.108;2023-07-20T08:45:17;26.30;1.00
5466;DHT22;2755;50.728;7.108;2023-07-20T08:47:43;26.90;1.00
5466;DHT22;2755;50.728;7.108;2023-07-20T08:50:11;25.90;1.00
5466;DHT22;2755;50.728;7.108;2023-07-20T08:52:38;26.60;1.00
5466;DHT22;2755;50.728;7.108;2023-07-20T08:57:33;26.60;1.00
5466;DHT22;2755;50.728;7.108;2023-07-20T09:00:01;26.50;1.00
5466;DHT22;2755;50.728;7.108;2023-07-20T09:02:30;26.00;1.00
5466;DHT22;2755;50.728;7.108;2023-07-20T09:04:58;26.20;1.00
5466;DHT22;2755;50.728;7.108;2023-07-20T09:07:25;25.60;1.00
5466;DHT22;2755;50.728;7.108;2023-07-20T09:12:17;24.30;1.00
5466;DHT22;2755;50.728;7.108;2023-07-20T09:14:43;24.40;1.00
5466;DHT22;2755;50.728;7.108;2023-07-20T09:17:13;24.90;1.00
5466;DHT22;2755;50.728;7.108;2023-07-20T09:19:45;25.80;1.00
5466;DHT22;2755;50.728;7.108;2023-07-20T09:22:10;25.10;1.00
5466;DHT22;2755;50.728;7.108;2023-07-20T09:24:36;25.80;1.00
5466;DHT22;2755;50.728;7.108;2023-07-20T09:27:01;27.00;1.00
5466;DHT22;2755;50.728;7.108;2023-07-20T09:29:29;25.70;1.00
5466;DHT22;2755;50.728;7.108;2023-07-20T09:32:00;25.30;1.00
5466;DHT22;2755;50.728;7.108;2023-07-20T09:34:27;25.90;1.00
5466;DHT22;2755;50.728;7.108;2023-07-20T09:36:53;26.40;1.00
5466;DHT22;2755;50.728;7.108;2023-07-20T09:39:20;26.80;1.00
5466;DHT22;2755;50.728;7.108;2023-07-20T09:41:45;27.80;1.00
5466;DHT22;2755;50.728;7.108;2023-07-20T09:44:11;28.60;1.00
5466;DHT22;2755;50.728;7.108;2023-07-20T09:46:45;28.00;1.00
5466;DHT22;2755;50.728;7.108;2023-07-20T09:51:37;27.80;1.00
5466;DHT22;2755;50.728;7.108;2023-07-20T09:54:04;27.20;1.00
5466;DHT22;2755;50.728;7.108;2023-07-20T09:56:30;27.40;1.00
5466;DHT22;2755;50.728;7.108;2023-07-20T09:58:56;26.40;1.00
5466;DHT22;2755;50.728;7.108;2023-07-20T10:03:51;27.00;1.00
5466;DHT22;2755;50.728;7.108;2023-07-20T10:06:22;26.40;1.00
5466;DHT22;2755;50.728;7.108;2023-07-20T10:08:52;26.80;1.00
5466;DHT22;2755;50.728;7.108;2023-07-20T10:13:46;26.90;1.00
5466;DHT22;2755;50.728;7.108;2023-07-20T10:16:22;27.20;1.00
5466;DHT22;2755;50.728;7.108;2023-07-20T10:22:00;27.30;1.00
5466;DHT22;2755;50.728;7.108;2023-07-20T10:24:27;28.10;1.00
5466;DHT22;2755;50.728;7.108;2023-07-20T10:26:55;26.90;1.00
5466;DHT22;2755;50.728;7.108;2023-07-20T10:29:21;27.60;1.00
5466;DHT22;2755;50.728;7.108;2023-07-20T10:31:47;27.30;1.00
5466;DHT22;2755;50.728;7.108;2023-07-20T10:34:13;27.70;1.00
5466;DHT22;2755;50.728;7.108;2023-07-20T10:36:45;26.80;1.00
5466;DHT22;2755;50.728;7.108;2023-07-20T10:39:25;26.50;1.00
5466;DHT22;2755;50.728;7.108;2023-07-20T10:42:00;25.90;1.00
5466;DHT22;2755;50.728;7.108;2023-07-20T10:44:26;25.50;1.00
5466;DHT22;2755;50.728;7.108;2023-07-20T10:47:02;25.20;1.00
5466;DHT22;2755;50.728;7.108;2023-07-20T10:49:28;25.20;1.00
5466;DHT22;2755;50.728;7.108;2023-07-20T10:51:58;24.70;1.00
5466;DHT22;2755;50.728;7.108;2023-07-20T10:56:52;24.60;1.00
5466;DHT22;2755;50.728;7.108;2023-07-20T10:59:20;25.10;1.00
5466;DHT22;2755;50.728;7.108;2023-07-20T11:04:12;25.60;1.00
5466;DHT22;2755;50.728;7.108;2023-07-20T11:06:43;26.00;1.00
5466;DHT22;2755;50.728;7.108;2023-07-20T11:09:10;25.80;1.00
5466;DHT22;2755;50.728;7.108;2023-07-20T11:11:38;26.10;1.00
5466;DHT22;2755;50.728;7.108;2023-07-20T11:16:42;27.60;1.00
5466;DHT22;2755;50.728;7.108;2023-07-20T11:21:42;29.70;1.00
5466;DHT22;2755;50.728;7.108;2023-07-20T11:24:08;27.70;1.00
5466;DHT22;2755;50.728;7.108;2023-07-20T11:27:01;26.50;1.00
5466;DHT22;2755;50.728;7.108;2023-07-20T11:34:20;25.60;1.00
5466;DHT22;2755;50.728;7.108;2023-07-20T11:36:48;25.30;1.00
5466;DHT22;2755;50.728;7.108;2023-07-20T11:39:15;23.60;1.00
5466;DHT22;2755;50.728;7.108;2023-07-20T11:41:47;24.90;1.00
5466;DHT22;2755;50.728;7.108;2023-07-20T11:44:13;25.80;1.00
5466;DHT22;2755;50.728;7.108;2023-07-20T11:46:41;25.70;1.00
5466;DHT22;2755;50.728;7.108;2023-07-20T11:49:07;24.80;1.00
5466;DHT22;2755;50.728;7.108;2023-07-20T11:51:34;25.40;1.00
5466;DHT22;2755;50.728;7.108;2023-07-20T11:54:02;25.40;1.00
5466;DHT22;2755;50.728;7.108;2023-07-20T11:56:27;25.70;1.00
5466;DHT22;2755;50.728;7.108;2023-07-20T11:59:00;25.90;1.00
5466;DHT22;2755;50.728;7.108;2023-07-20T12:01:30;26.30;1.00
5466;DHT22;2755;50.728;7.108;2023-07-20T12:04:01;26.40;1.00
5466;DHT22;2755;50.728;7.108;2023-07-20T12:06:30;26.10;1.00
5466;DHT22;2755;50.728;7.108;2023-07-20T12:08:59;26.50;1.00
5466;DHT22;2755;50.728;7.108;2023-07-20T12:11:38;27.00;1.00
5466;DHT22;2755;50.728;7.108;2023-07-20T12:16:32;26.40;1.00
5466;DHT22;2755;50.728;7.108;2023-07-20T12:19:05;26.40;1.00
5466;DHT22;2755;50.728;7.108;2023-07-20T12:21:31;25.50;1.00
5466;DHT22;2755;50.728;7.108;2023-07-20T12:23:58;25.80;1.00
5466;DHT22;2755;50.728;7.108;2023-07-20T12:26:24;25.50;1.00
5466;DHT22;2755;50.728;7.108;2023-07-20T12:28:50;25.50;1.00
5466;DHT22;2755;50.728;7.108;2023-07-20T12:31:16;25.70;1.00
5466;DHT22;2755;50.728;7.108;2023-07-20T12:33:42;25.60;1.00
5466;DHT22;2755;50.728;7.108;2023-07-20T12:36:09;26.30;1.00
5466;DHT22;2755;50.728;7.108;2023-07-20T12:41:01;27.40;1.00
5466;DHT22;2755;50.728;7.108;2023-07-20T12:43:28;28.40;1.00
5466;DHT22;2755;50.728;7.108;2023-07-20T12:45:54;28.70;1.00
5466;DHT22;2755;50.728;7.108;2023-07-20T12:48:20;29.20;1.00
5466;DHT22;2755;50.728;7.108;2023-07-20T12:50:46;30.30;1.00
5466;DHT22;2755;50.728;7.108;2023-07-20T12:53:12;27.70;1.00
5466;DHT22;2755;50.728;7.108;2023-07-20T12:55:38;30.50;1.00
5466;DHT22;2755;50.728;7.108;2023-07-20T12:58:04;29.60;1.00
5466;DHT22;2755;50.728;7.108;2023-07-20T13:07:50;29.30;1.00
5466;DHT22;2755;50.728;7.108;2023-07-20T13:10:16;29.30;1.00
5466;DHT22;2755;50.728;7.108;2023-07-20T13:15:09;28.90;1.00
5466;DHT22;2755;50.728;7.108;2023-07-20T13:17:35;29.70;1.00
5466;DHT22;2755;50.728;7.108;2023-07-20T13:20:02;28.80;1.00
5466;DHT22;2755;50.728;7.108;2023-07-20T13:24:55;28.40;1.00
5466;DHT22;2755;50.728;7.108;2023-07-20T13:27:21;28.50;1.00
5466;DHT22;2755;50.728;7.108;2023-07-20T13:29:47;28.20;1.00
5466;DHT22;2755;50.728;7.108;2023-07-20T13:32:14;28.10;1.00
5466;DHT22;2755;50.728;7.108;2023-07-20T13:34:44;27.90;1.00
5466;DHT22;2755;50.728;7.108;2023-07-20T13:37:10;28.70;1.00
5466;DHT22;2755;50.728;7.108;2023-07-20T13:39:36;29.10;1.00
5466;DHT22;2755;50.728;7.108;2023-07-20T13:44:31;27.50;1.00
5466;DHT22;2755;50.728;7.108;2023-07-20T13:46:56;26.90;1.00
5466;DHT22;2755;50.728;7.108;2023-07-20T13:49:22;26.70;1.00
5466;DHT22;2755;50.728;7.108;2023-07-20T13:51:48;26.10;1.00
5466;DHT22;2755;50.728;7.108;2023-07-20T13:54:13;26.20;1.00
5466;DHT22;2755;50.728;7.108;2023-07-20T13:56:39;25.80;1.00
5466;DHT22;2755;50.728;7.108;2023-07-20T13:59:04;25.60;1.00
5466;DHT22;2755;50.728;7.108;2023-07-20T14:01:30;24.90;1.00
5466;DHT22;2755;50.728;7.108;2023-07-20T14:03:58;24.10;1.00
5466;DHT22;2755;50.728;7.108;2023-07-20T14:06:23;24.20;1.00
5466;DHT22;2755;50.728;7.108;2023-07-20T14:08:49;24.00;1.00
5466;DHT22;2755;50.728;7.108;2023-07-20T14:11:16;23.50;1.00
5466;DHT22;2755;50.728;7.108;2023-07-20T14:13:41;23.80;1.00
5466;DHT22;2755;50.728;7.108;2023-07-20T14:16:07;24.20;1.00
5466;DHT22;2755;50.728;7.108;2023-07-20T14:20:59;23.90;1.00
5466;DHT22;2755;50.728;7.108;2023-07-20T14:23:27;24.30;1.00
5466;DHT22;2755;50.728;7.108;2023-07-20T14:28:19;25.00;1.00
5466;DHT22;2755;50.728;7.108;2023-07-20T14:30:45;24.40;1.00
5466;DHT22;2755;50.728;7.108;2023-07-20T14:38:03;24.40;1.00
5466;DHT22;2755;50.728;7.108;2023-07-20T14:42:55;24.20;1.00
5466;DHT22;2755;50.728;7.108;2023-07-20T14:50:22;24.30;1.00
5466;DHT22;2755;50.728;7.108;2023-07-20T14:52:47;23.80;1.00
5466;DHT22;2755;50.728;7.108;2023-07-20T14:55:13;24.00;1.00
5466;DHT22;2755;50.728;7.108;2023-07-20T15:00:05;22.90;1.00
5466;DHT22;2755;50.728;7.108;2023-07-20T15:02:33;23.80;1.00
5466;DHT22;2755;50.728;7.108;2023-07-20T15:04:59;23.80;1.00
5466;DHT22;2755;50.728;7.108;2023-07-20T15:12:17;24.50;1.00
5466;DHT22;2755;50.728;7.108;2023-07-20T15:14:43;23.70;1.00
5466;DHT22;2755;50.728;7.108;2023-07-20T15:19:38;24.00;1.00
5466;DHT22;2755;50.728;7.108;2023-07-20T15:22:04;23.90;1.00
5466;DHT22;2755;50.728;7.108;2023-07-20T15:24:30;23.60;1.00
5466;DHT22;2755;50.728;7.108;2023-07-20T15:26:56;24.50;1.00
5466;DHT22;2755;50.728;7.108;2023-07-20T15:29:23;24.80;1.00
5466;DHT22;2755;50.728;7.108;2023-07-20T15:31:48;24.00;1.00
5466;DHT22;2755;50.728;7.108;2023-07-20T15:34:14;24.50;1.00
5466;DHT22;2755;50.728;7.108;2023-07-20T15:36:40;25.00;1.00
5466;DHT22;2755;50.728;7.108;2023-07-20T15:39:06;24.40;1.00
5466;DHT22;2755;50.728;7.108;2023-07-20T15:41:32;24.40;1.00
5466;DHT22;2755;50.728;7.108;2023-07-20T15:43:58;24.20;1.00
5466;DHT22;2755;50.728;7.108;2023-07-20T15:51:36;24.20;1.00
5466;DHT22;2755;50.728;7.108;2023-07-20T15:54:04;24.20;1.00
5466;DHT22;2755;50.728;7.108;2023-07-20T15:56:33;24.50;1.00
5466;DHT22;2755;50.728;7.108;2023-07-20T15:58:58;24.60;1.00
5466;DHT22;2755;50.728;7.108;2023-07-20T16:03:50;23.80;1.00
5466;DHT22;2755;50.728;7.108;2023-07-20T16:08:42;24.50;1.00
5466;DHT22;2755;50.728;7.108;2023-07-20T16:11:07;24.40;1.00
5466;DHT22;2755;50.728;7.108;2023-07-20T16:13:33;23.70;1.00
5466;DHT22;2755;50.728;7.108;2023-07-20T16:15:58;24.20;1.00
5466;DHT22;2755;50.728;7.108;2023-07-20T16:18:24;23.70;1.00
5466;DHT22;2755;50.728;7.108;2023-07-20T16:23:15;23.50;1.00
5466;DHT22;2755;50.728;7.108;2023-07-20T16:25:45;23.60;1.00
5466;DHT22;2755;50.728;7.108;2023-07-20T16:33:03;23.70;1.00
5466;DHT22;2755;50.728;7.108;2023-07-20T16:40:21;23.90;1.00
5466;DHT22;2755;50.728;7.108;2023-07-20T16:42:47;23.30;1.00
5466;DHT22;2755;50.728;7.108;2023-07-20T16:45:13;23.80;1.00
5466;DHT22;2755;50.728;7.108;2023-07-20T16:47:38;23.50;1.00
5466;DHT22;2755;50.728;7.108;2023-07-20T16:50:05;23.80;1.00
5466;DHT22;2755;50.728;7.108;2023-07-20T16:52:30;23.30;1.00
5466;DHT22;2755;50.728;7.108;2023-07-20T16:54:56;23.20;1.00
5466;DHT22;2755;50.728;7.108;2023-07-20T16:57:22;23.10;1.00
5466;DHT22;2755;50.728;7.108;2023-07-20T16:59:47;23.00;1.00
5466;DHT22;2755;50.728;7.108;2023-07-20T17:02:14;23.80;1.00
5466;DHT22;2755;50.728;7.108;2023-07-20T17:07:05;23.50;1.00
5466;DHT22;2755;50.728;7.108;2023-07-20T17:09:32;23.50;1.00
5466;DHT22;2755;50.728;7.108;2023-07-20T17:11:59;24.40;1.00
5466;DHT22;2755;50.728;7.108;2023-07-20T17:16:51;23.40;1.00
5466;DHT22;2755;50.728;7.108;2023-07-20T17:19:17;22.90;1.00
5466;DHT22;2755;50.728;7.108;2023-07-20T17:21:43;23.50;1.00
5466;DHT22;2755;50.728;7.108;2023-07-20T17:24:09;23.70;1.00
5466;DHT22;2755;50.728;7.108;2023-07-20T17:26:36;23.60;1.00
5466;DHT22;2755;50.728;7.108;2023-07-20T17:29:01;23.10;1.00
5466;DHT22;2755;50.728;7.108;2023-07-20T17:31:29;23.40;1.00
5466;DHT22;2755;50.728;7.108;2023-07-20T17:33:55;24.60;1.00
5466;DHT22;2755;50.728;7.108;2023-07-20T17:36:20;23.40;1.00
5466;DHT22;2755;50.728;7.108;2023-07-20T17:38:49;23.60;1.00
5466;DHT22;2755;50.728;7.108;2023-07-20T17:41:14;22.30;1.00
5466;DHT22;2755;50.728;7.108;2023-07-20T17:48:32;23.30;1.00
5466;DHT22;2755;50.728;7.108;2023-07-20T17:50:58;23.60;1.00
5466;DHT22;2755;50.728;7.108;2023-07-20T17:53:23;23.30;1.00
5466;DHT22;2755;50.728;7.108;2023-07-20T17:55:51;22.70;1.00
5466;DHT22;2755;50.728;7.108;2023-07-20T18:00:43;21.90;1.00
5466;DHT22;2755;50.728;7.108;2023-07-20T18:03:08;23.40;1.00
5466;DHT22;2755;50.728;7.108;2023-07-20T18:05:34;22.60;1.00
5466;DHT22;2755;50.728;7.108;2023-07-20T18:07:59;22.80;1.00
5466;DHT22;2755;50.728;7.108;2023-07-20T18:10:25;22.00;1.00
5466;DHT22;2755;50.728;7.108;2023-07-20T18:12:51;22.90;1.00
5466;DHT22;2755;50.728;7.108;2023-07-20T18:15:17;22.40;1.00
5466;DHT22;2755;50.728;7.108;2023-07-20T18:17:43;22.40;1.00
5466;DHT22;2755;50.728;7.108;2023-07-20T18:20:09;22.60;1.00
5466;DHT22;2755;50.728;7.108;2023-07-20T18:22:35;22.00;1.00
5466;DHT22;2755;50.728;7.108;2023-07-20T18:25:01;22.90;1.00
5466;DHT22;2755;50.728;7.108;2023-07-20T18:27:26;22.00;1.00
5466;DHT22;2755;50.728;7.108;2023-07-20T18:29:53;22.20;1.00
5466;DHT22;2755;50.728;7.108;2023-07-20T18:32:19;22.20;1.00
5466;DHT22;2755;50.728;7.108;2023-07-20T18:34:45;22.30;1.00
5466;DHT22;2755;50.728;7.108;2023-07-20T18:37:11;21.90;1.00
5466;DHT22;2755;50.728;7.108;2023-07-20T18:39:37;22.20;1.00
5466;DHT22;2755;50.728;7.108;2023-07-20T18:42:03;22.10;1.00
5466;DHT22;2755;50.728;7.108;2023-07-20T18:46:55;21.60;1.00
5466;DHT22;2755;50.728;7.108;2023-07-20T18:49:22;21.80;1.00
5466;DHT22;2755;50.728;7.108;2023-07-20T18:51:48;21.80;1.00
5466;DHT22;2755;50.728;7.108;2023-07-20T18:54:14;22.20;1.00
5466;DHT22;2755;50.728;7.108;2023-07-20T18:56:41;21.80;1.00
5466;DHT22;2755;50.728;7.108;2023-07-20T18:59:07;22.60;1.00
5466;DHT22;2755;50.728;7.108;2023-07-20T19:01:32;21.40;1.00
5466;DHT22;2755;50.728;7.108;2023-07-20T19:03:58;21.40;1.00
5466;DHT22;2755;50.728;7.108;2023-07-20T19:08:49;21.80;1.00
5466;DHT22;2755;50.728;7.108;2023-07-20T19:11:15;21.70;1.00
5466;DHT22;2755;50.728;7.108;2023-07-20T19:13:40;21.30;1.00
5466;DHT22;2755;50.728;7.108;2023-07-20T19:16:06;21.10;1.00
5466;DHT22;2755;50.728;7.108;2023-07-20T19:18:33;21.20;1.00
5466;DHT22;2755;50.728;7.108;2023-07-20T19:21:02;20.90;1.00
5466;DHT22;2755;50.728;7.108;2023-07-20T19:23:27;21.30;1.00
5466;DHT22;2755;50.728;7.108;2023-07-20T19:25:53;21.20;1.00